Flight Track Log - Related Links

Times and Time Zones

All times are in EST time to prevent confusion due to time zone crossing. See the SKW5515 flight status page for this flight to view local times or setup timezone preferences in your user account.

Time Position Orientation Groundspeed Altitude Reporting Facility
EST Latitude Longitude Course Direction KTS MPH feet Rate Location/Type
01:13AM 44.6535 -110.7030 319° Northwest  Level Estimated
01:14AM 44.7196 -110.7961 315° West  Level Estimated
01:15AM 44.7855 -110.8894 315° West  Level Estimated
01:16AM 44.8514 -110.9829 315° West  Level Estimated
01:17AM 44.9173 -111.0767 315° West  Level Estimated
01:18AM 44.9830 -111.1706 315° West  Level Estimated
01:19AM 45.0486 -111.2647 315° West  Level Estimated
01:20AM 45.1142 -111.3591 315° West  Level Estimated
01:21AM 45.1797 -111.4537 315° West  Level Estimated
01:22AM 45.2451 -111.5485 314° West  Level Estimated
01:23AM 45.3105 -111.6435 314° West  Level Estimated
01:24AM 45.3757 -111.7388 314° West  Level Estimated
01:25AM 45.4409 -111.8343 314° West  Level Estimated
01:26AM 45.5060 -111.9299 314° West  Level Estimated
01:27AM 45.5711 -112.0258 314° West  Level Estimated
01:28AM 45.6360 -112.1220 314° West  Level Estimated
01:29AM 45.7009 -112.2183 314° West  Level Estimated
01:30AM 45.7657 -112.3149 314° West  Level Estimated
01:31AM 45.8304 -112.4117 314° West  Level Estimated
01:32AM 45.8950 -112.5087 314° West  Level Estimated
01:33AM 45.9595 -112.6060 314° West  Level Estimated
01:34AM 46.0240 -112.7035 314° West  Level Estimated
01:35AM 46.0883 -112.8012 314° West  Level Estimated
01:36AM 46.1526 -112.8991 313° West  Level Estimated
01:37AM 46.2168 -112.9973 313° West  Level Estimated
01:38AM 46.2809 -113.0956 313° West  Level Estimated
01:39AM 46.3450 -113.1943 313° West  Level Estimated
01:40AM 46.4089 -113.2931 313° West  Level Estimated
01:41AM 46.4728 -113.3922 313° West  Level Estimated
01:42AM 46.5366 -113.4915 313° West  Level Estimated
01:43AM 46.6003 -113.5911 313° West  Level Estimated
01:44AM 46.6639 -113.6909 313° West  Level Estimated
01:45AM 46.7274 -113.7909 313° West  Level Estimated
01:46AM 46.7908 -113.8912 313° West  Level Estimated
01:47AM 46.8542 -113.9916 313° West  Level Estimated
01:48AM 46.9163 -114.0906 313° West  Level Estimated
01:49AM 46.9163 -114.0906 146° Southeast  Level Estimated
01:50AM 46.9163 -114.0906 146° Southeast  Level Estimated
01:51AM 46.9163 -114.0906 146° Southeast  Level Estimated
01:52AM 46.9163 -114.0906 146° Southeast  Level Estimated
01:53AM 46.9163 -114.0906 146° Southeast  Level Estimated
01:54AM 46.9163 -114.0906 146° Southeast  Level Estimated
01:55AM 46.9163 -114.0906 146° Southeast  Level Estimated
01:56AM 46.9163 -114.0906 146° Southeast  Level Estimated
01:57AM 46.9163 -114.0906 146° Southeast  Level Estimated
01:58AM 46.9163 -114.0906 146° Southeast  Level Estimated
01:59AM 46.9163 -114.0906 146° Southeast  Level Estimated
02:00AM 46.9163 -114.0906 146° Southeast  Level Estimated
02:01AM 46.9163 -114.0906 146° Southeast  Level Estimated
02:02AM 46.9163 -114.0906 146° Southeast  Level Estimated
02:03AM 46.9163 -114.0906 146° Southeast  Level Estimated
02:04AM 46.9163 -114.0906 146° Southeast  Level Estimated

Login

Don't have an account? Register now (free) for customized features, flight alerts, and more!